Terminal Aerodrome Forecast
Issued by NWS

Home | Current Version | Previous Version | Text Only | Print | Product List | Glossary On
Versions: 1 2 3 4 5 6 7 8 9 10 11 12 13 14 15 16 17 18 19 20
577
FTUS43 KDLH 170702 AAA
TAFHYR
TAF AMD
KHYR 170702Z 1707/1806 10008KT 5SM RA VCTS SCT015 OVC035CB
      TEMPO 1707/1709 2SM -RA BR SCT008 OVC015
     FM170900 VRB03KT 4SM SHRA VCTS OVC015CB
     FM171100 VRB03KT 4SM SHRA VCTS OVC007CB
     FM171500 13004KT 4SM -SHRA OVC003
     FM172000 33006KT P6SM VCSH OVC008
     FM180000 32007KT P6SM OVC008
     FM180400 32006KT P6SM BKN008=

USA.gov is the U.S. government's official web portal to all federal, state and local government web resources and services.